AirNav   Duncan Aviation - Near you to keep you flying
 
 636 users online  

XS17 Hensley Ranch Airport
Milano, Texas, USA

GOING TO MILANO?


FAA INFORMATION EFFECTIVE 08 SEPTEMBER 2022

Location

FAA Identifier: XS17
Lat/Long: 30-42-32.7020N 096-54-06.9350W
30-42.545033N 096-54.115583W
30.7090839,-96.9019264
(estimated)
Elevation: 460 ft. / 140 m (estimated)
Variation: 06E (1985)
From city: 3 miles W of MILANO, TX
Time zone: UTC -5 (UTC -6 during Standard Time)
Zip code: 76556

Airport Operations

Airport use: Private use. Permission required prior to landing
Activation date: 08/1974
Control tower: no
ARTCC: HOUSTON CENTER
FSS: MONTGOMERY COUNTY FLIGHT SERVICE STATION
Attendance: UNATNDD
Wind indicator: no
Segmented circle: no

Airport Communications

WX AWOS-3P at T35 (11 nm N): 124.1 (254-605-0856)
WX AWOS-3PT at RWV (15 nm SE): 118.35 (979-567-6784)
WX AWOS-3 at LHB (17 nm NE): 118.675 (979-280-5596)

Nearby radio navigation aids

VOR radial/distance  VOR name  Freq  Var
CLLr276/25.6COLLEGE STATION VORTAC113.3008E
CWKr053/38.0CENTEX VORTAC112.8006E

Airport Services

Airframe service: NONE
Powerplant service: NONE

Runway Information

Runway 17/35

Dimensions: 3500 x 150 ft. / 1067 x 46 m
Surface: turf
RUNWAY 17  RUNWAY 35
Traffic pattern: leftleft

Airport Ownership and Management from official FAA records

Ownership: Privately-owned
Owner: LYNN C HENSLEY
1614 W. CAMERON
ROCKDALE, TX 76567
Phone 512-446-5864

Additional Remarks

RWY 17/35 HEAVY GRASS AND NO REGULARLY MAINTAINED.
FOR CD CTC HOUSTON APCH AT 281-443-5844.

Instrument Procedures

There are no published instrument procedures at XS17.

Some nearby airports with instrument procedures:

KRWV - Caldwell Municipal Airport (15 nm SE)
KLHB - Hearne Municipal Airport (17 nm NE)
KCLL - Easterwood Field Airport (29 nm E)
T74 - Taylor Municipal Airport (29 nm W)
KCFD - Coulter Field Airport (29 nm E)
 
Loc | Ops | Rwys | IFR | FBO | Links
Com | Nav | Svcs | Stats | Notes
Area around XS17 (Hensley Ranch Airport)
 
Road maps at: MapQuest Bing Google
 
Aerial photo
No photo
 
Sectional chart

 
Airport distance calculator
Flying to Hensley Ranch Airport? Find the distance to fly.

From to XS17

Sunrise and sunset
Times for 04-Oct-2022
 Local
(UTC-5)
 Zulu
(UTC)
Morning civil twilight07:0012:00
Sunrise07:2412:24
Sunset19:0900:09
Evening civil twilight19:3300:33

Current date and time
Zulu (UTC)  04-Oct-2022 07:17:23
Local (UTC-5)  04-Oct-2022 02:17:23
 
METAR
KT35 
11nm N 
040655Z AUTO 00000KT 10SM CLR 19/07 A3009 RMK AO2 T01860070
KRWV 
15nm SE 
040655Z AUTO 02003KT 10SM CLR 16/09 A3008 RMK AO2 T01650092
KLHB 
17nm NE 
040655Z AUTO 00000KT 10SM CLR 17/09 A3009 RMK AO2 T01740090
TAF
KCLL 
29nm E 
040520Z 0406/0506 VRB03KT P6SM BKN250 FM041800 11006KT P6SM SCT250 FM050000 VRB04KT P6SM SCT250
NOTAMs
Click for the latest NOTAMs
NOTAMs are issued by the DoD/FAA and will open in a separate window not controlled by AirNav.

 

 
 

Would you like to see your business listed on this page?

 If your business provides an interesting product or service to pilots, flight crews, aircraft, or users of the Hensley Ranch Airport, you should consider listing it here.  To start the listing process, click on the button below
 
Add a business
 

Other Pages about Hensley Ranch Airport

Update a link
 
Copyright © AirNav, LLC. All rights reserved. Privacy Policy  Contact